Arnsberg, Germany

1:34 PM CEST on July 27, 2016 (GMT +0200)
Arnsberg | | Change Station

Elev 0 ft 51.47 °N, 7.91 °E | Updated 2 minutes ago

Partly Cloudy
Partly Cloudy
72.7 °F
Feels Like 76 °F
N
7.5
Wind Variable Wind from WSW
Gusts 11.8 mph

Today
High -- | Low -- °F
--% Chance of Precip.
Yesterday
High -- | Low -- °F
Precip. -- in
Pressure 30.04 in
Visibility 6.2 miles
Clouds Few 3500 ft
Heat Index 76 °F
Dew Point 60 °F
Humidity 65%
Rainfall 0.00 in
Snow Depth Not available.
5:45 AM 9:23 PM
Last Quarter, 44% visible
METAR EDLW 271120Z 25012KT 9999 FEW035 20/12 Q1017
Pressure 30.04 in
Visibility 6.2 miles
Clouds Few 3500 ft
Heat Index 76 °F
Dew Point 60 °F
Humidity 65%
Rainfall 0.00 in
Snow Depth Not available.
5:45 AM 9:23 PM
Last Quarter, 44% visible
METAR EDLW 271120Z 25012KT 9999 FEW035 20/12 Q1017

10-Day Weather Forecast

×

Almanac

Astronomy

Jul. 27, 2016 Rise Set
Actual Time
Civil Twilight
Nautical Twilight
Astronomical Twilight
Moon
Length of Visible Light
Length of Day
Tomorrow will be .
, % of the Moon is Illuminated

Today's Extremes

Country Highs Country Lows

Community

WunderPhotos

Upload Photos

1,927,828 photos uploaded!

WunderBlog® & News

Nearby

Air Quality

  Air Quality AQ Index Pollutant
Not available.

Snow Depth

Station Depth Elevation

Earthquake Activity

City Distance Mag. Time & Date
Minimum magnitude displayed is 2.5.

Coastal Water Temperatures

Place Temperature

Stations

Nearby Weather Stations

Station Location Temp. Windchill Dew Point Humidity Wind Precip. Elev Updated Type